sensor_id;sensor_type;location;lat;lon;timestamp;pressure;altitude;pressure_sealevel;temperature;humidity
5883;BME280;2967;51.488;6.618;2022-12-16T00:04:09;100721.09;;;-2.87;100.00
5883;BME280;2967;51.488;6.618;2022-12-16T00:09:12;100714.94;;;-2.77;100.00
5883;BME280;2967;51.488;6.618;2022-12-16T00:14:14;100715.03;;;-2.83;100.00
5883;BME280;2967;51.488;6.618;2022-12-16T00:19:18;100726.22;;;-2.81;100.00
5883;BME280;2967;51.488;6.618;2022-12-16T00:24:21;100716.13;;;-3.00;100.00
5883;BME280;2967;51.488;6.618;2022-12-16T00:29:23;100725.56;;;-2.98;100.00
5883;BME280;2967;51.488;6.618;2022-12-16T00:34:27;100727.25;;;-2.97;100.00
5883;BME280;2967;51.488;6.618;2022-12-16T00:39:30;100727.38;;;-3.06;100.00
5883;BME280;2967;51.488;6.618;2022-12-16T00:44:32;100734.47;;;-3.26;100.00
5883;BME280;2967;51.488;6.618;2022-12-16T00:49:36;100736.00;;;-3.07;100.00
5883;BME280;2967;51.488;6.618;2022-12-16T00:54:39;100736.97;;;-3.15;100.00
5883;BME280;2967;51.488;6.618;2022-12-16T00:59:42;100739.59;;;-3.21;100.00
5883;BME280;2967;51.488;6.618;2022-12-16T01:04:46;100734.38;;;-3.17;100.00
5883;BME280;2967;51.488;6.618;2022-12-16T01:09:48;100739.41;;;-3.02;100.00
5883;BME280;2967;51.488;6.618;2022-12-16T01:14:52;100744.44;;;-2.88;100.00
5883;BME280;2967;51.488;6.618;2022-12-16T01:19:58;100746.19;;;-2.92;100.00
5883;BME280;2967;51.488;6.618;2022-12-16T01:25:02;100750.59;;;-3.01;100.00
5883;BME280;2967;51.488;6.618;2022-12-16T01:30:06;100757.38;;;-2.90;100.00
5883;BME280;2967;51.488;6.618;2022-12-16T01:35:11;100748.63;;;-2.78;100.00
5883;BME280;2967;51.488;6.618;2022-12-16T01:40:33;100755.41;;;-2.71;100.00
5883;BME280;2967;51.488;6.618;2022-12-16T01:45:36;100766.69;;;-2.77;100.00
5883;BME280;2967;51.488;6.618;2022-12-16T01:50:40;100768.44;;;-2.77;100.00
5883;BME280;2967;51.488;6.618;2022-12-16T01:55:47;100786.63;;;-2.82;100.00
5883;BME280;2967;51.488;6.618;2022-12-16T02:06:03;100780.56;;;-2.79;100.00
5883;BME280;2967;51.488;6.618;2022-12-16T02:11:14;100767.63;;;-2.82;100.00
5883;BME280;2967;51.488;6.618;2022-12-16T02:16:26;100777.97;;;-2.82;100.00
5883;BME280;2967;51.488;6.618;2022-12-16T02:21:45;100772.56;;;-2.62;100.00
5883;BME280;2967;51.488;6.618;2022-12-16T02:27:23;100776.22;;;-2.77;100.00
5883;BME280;2967;51.488;6.618;2022-12-16T02:32:42;100778.56;;;-2.58;100.00
5883;BME280;2967;51.488;6.618;2022-12-16T02:37:52;100786.25;;;-2.52;100.00
5883;BME280;2967;51.488;6.618;2022-12-16T02:43:02;100784.59;;;-2.58;100.00
5883;BME280;2967;51.488;6.618;2022-12-16T02:48:10;100788.03;;;-2.54;100.00
5883;BME280;2967;51.488;6.618;2022-12-16T02:53:13;100789.72;;;-2.55;100.00
5883;BME280;2967;51.488;6.618;2022-12-16T02:58:18;100771.97;;;-2.83;100.00
5883;BME280;2967;51.488;6.618;2022-12-16T03:03:32;100770.16;;;-2.75;100.00
5883;BME280;2967;51.488;6.618;2022-12-16T03:08:39;100781.97;;;-2.53;100.00
5883;BME280;2967;51.488;6.618;2022-12-16T03:13:47;100785.28;;;-2.42;100.00
5883;BME280;2967;51.488;6.618;2022-12-16T03:18:54;100791.22;;;-2.36;100.00
5883;BME280;2967;51.488;6.618;2022-12-16T03:23:59;100796.31;;;-2.28;100.00
5883;BME280;2967;51.488;6.618;2022-12-16T03:29:06;100799.81;;;-2.32;100.00
5883;BME280;2967;51.488;6.618;2022-12-16T03:34:15;100810.13;;;-2.29;100.00
5883;BME280;2967;51.488;6.618;2022-12-16T03:39:20;100807.44;;;-2.22;100.00
5883;BME280;2967;51.488;6.618;2022-12-16T03:44:24;100761.09;;;-2.40;100.00
5883;BME280;2967;51.488;6.618;2022-12-16T03:49:29;100808.13;;;-2.08;100.00
5883;BME280;2967;51.488;6.618;2022-12-16T03:54:32;100783.34;;;-2.28;100.00
5883;BME280;2967;51.488;6.618;2022-12-16T03:59:35;100830.75;;;-2.22;100.00
5883;BME280;2967;51.488;6.618;2022-12-16T04:04:39;100827.38;;;-2.27;100.00
5883;BME280;2967;51.488;6.618;2022-12-16T04:09:41;100835.91;;;-2.19;100.00
5883;BME280;2967;51.488;6.618;2022-12-16T04:14:44;100854.16;;;-2.29;100.00
5883;BME280;2967;51.488;6.618;2022-12-16T04:20:11;100851.75;;;-2.44;100.00
5883;BME280;2967;51.488;6.618;2022-12-16T04:25:34;100857.06;;;-2.56;100.00
5883;BME280;2967;51.488;6.618;2022-12-16T04:30:37;100858.63;;;-2.42;100.00
5883;BME280;2967;51.488;6.618;2022-12-16T04:35:41;100862.81;;;-2.30;100.00
5883;BME280;2967;51.488;6.618;2022-12-16T04:41:02;100857.47;;;-2.18;100.00
5883;BME280;2967;51.488;6.618;2022-12-16T04:46:22;100861.75;;;-2.16;100.00
5883;BME280;2967;51.488;6.618;2022-12-16T04:51:43;100860.16;;;-2.24;100.00
5883;BME280;2967;51.488;6.618;2022-12-16T04:57:03;100855.91;;;-2.33;100.00
5883;BME280;2967;51.488;6.618;2022-12-16T05:02:24;100866.94;;;-2.17;100.00
5883;BME280;2967;51.488;6.618;2022-12-16T05:07:46;100880.94;;;-2.29;100.00
5883;BME280;2967;51.488;6.618;2022-12-16T05:13:06;100880.22;;;-2.41;100.00
5883;BME280;2967;51.488;6.618;2022-12-16T05:18:27;100887.09;;;-2.40;100.00
5883;BME280;2967;51.488;6.618;2022-12-16T05:23:47;100887.09;;;-2.42;100.00
5883;BME280;2967;51.488;6.618;2022-12-16T05:29:08;100890.66;;;-2.50;100.00
5883;BME280;2967;51.488;6.618;2022-12-16T05:34:29;100897.75;;;-2.68;100.00
5883;BME280;2967;51.488;6.618;2022-12-16T05:39:50;100899.47;;;-2.67;100.00
5883;BME280;2967;51.488;6.618;2022-12-16T05:45:11;100888.38;;;-2.81;100.00
5883;BME280;2967;51.488;6.618;2022-12-16T05:50:31;100925.44;;;-2.75;100.00
5883;BME280;2967;51.488;6.618;2022-12-16T05:55:53;100930.41;;;-2.56;100.00
5883;BME280;2967;51.488;6.618;2022-12-16T06:01:13;100940.03;;;-2.66;100.00
5883;BME280;2967;51.488;6.618;2022-12-16T06:06:34;100943.44;;;-2.64;100.00
5883;BME280;2967;51.488;6.618;2022-12-16T06:11:56;100942.53;;;-2.58;100.00
5883;BME280;2967;51.488;6.618;2022-12-16T06:17:16;100950.25;;;-2.55;100.00
5883;BME280;2967;51.488;6.618;2022-12-16T06:22:37;100944.16;;;-2.49;100.00
5883;BME280;2967;51.488;6.618;2022-12-16T06:27:58;100947.50;;;-2.38;100.00
5883;BME280;2967;51.488;6.618;2022-12-16T06:33:19;100952.66;;;-2.35;100.00
5883;BME280;2967;51.488;6.618;2022-12-16T06:38:39;100957.63;;;-2.14;100.00
5883;BME280;2967;51.488;6.618;2022-12-16T06:44:01;100968.56;;;-1.91;100.00
5883;BME280;2967;51.488;6.618;2022-12-16T06:49:21;100973.81;;;-1.97;100.00
5883;BME280;2967;51.488;6.618;2022-12-16T06:54:41;100974.69;;;-1.97;100.00
5883;BME280;2967;51.488;6.618;2022-12-16T07:00:05;100992.78;;;-1.92;100.00
5883;BME280;2967;51.488;6.618;2022-12-16T07:05:21;100994.53;;;-1.94;100.00
5883;BME280;2967;51.488;6.618;2022-12-16T07:10:41;101003.06;;;-1.86;100.00
5883;BME280;2967;51.488;6.618;2022-12-16T07:16:18;101011.56;;;-1.74;100.00
5883;BME280;2967;51.488;6.618;2022-12-16T07:21:38;101016.78;;;-1.75;100.00
5883;BME280;2967;51.488;6.618;2022-12-16T07:26:58;101023.69;;;-1.77;100.00
5883;BME280;2967;51.488;6.618;2022-12-16T07:32:20;101038.31;;;-1.70;100.00
5883;BME280;2967;51.488;6.618;2022-12-16T07:37:40;101045.16;;;-1.66;100.00
5883;BME280;2967;51.488;6.618;2022-12-16T07:43:01;101045.09;;;-1.62;100.00
5883;BME280;2967;51.488;6.618;2022-12-16T07:48:22;101064.91;;;-1.55;100.00
5883;BME280;2967;51.488;6.618;2022-12-16T07:53:43;101070.06;;;-1.50;100.00
5883;BME280;2967;51.488;6.618;2022-12-16T07:59:03;101089.81;;;-1.39;100.00
5883;BME280;2967;51.488;6.618;2022-12-16T08:04:25;101092.28;;;-1.30;100.00
5883;BME280;2967;51.488;6.618;2022-12-16T08:09:45;101100.09;;;-1.31;100.00
5883;BME280;2967;51.488;6.618;2022-12-16T08:15:06;101106.13;;;-1.31;100.00
5883;BME280;2967;51.488;6.618;2022-12-16T08:20:28;101110.38;;;-1.25;100.00
5883;BME280;2967;51.488;6.618;2022-12-16T08:25:49;101114.72;;;-1.26;100.00
5883;BME280;2967;51.488;6.618;2022-12-16T08:31:09;101112.94;;;-1.22;100.00
5883;BME280;2967;51.488;6.618;2022-12-16T08:36:31;101108.78;;;-1.35;100.00
5883;BME280;2967;51.488;6.618;2022-12-16T08:41:51;101133.66;;;-1.21;100.00
5883;BME280;2967;51.488;6.618;2022-12-16T08:47:11;101140.34;;;-1.02;100.00
5883;BME280;2967;51.488;6.618;2022-12-16T08:52:33;101148.19;;;-1.06;100.00
5883;BME280;2967;51.488;6.618;2022-12-16T08:57:53;101160.28;;;-1.02;100.00
5883;BME280;2967;51.488;6.618;2022-12-16T09:03:14;101171.44;;;-0.96;100.00
5883;BME280;2967;51.488;6.618;2022-12-16T09:08:37;101174.06;;;-0.97;100.00
5883;BME280;2967;51.488;6.618;2022-12-16T09:13:57;101176.59;;;-0.91;100.00
5883;BME280;2967;51.488;6.618;2022-12-16T09:19:17;101185.16;;;-0.85;100.00
5883;BME280;2967;51.488;6.618;2022-12-16T09:24:39;101193.88;;;-0.92;100.00
5883;BME280;2967;51.488;6.618;2022-12-16T09:29:59;101195.28;;;-1.39;100.00
5883;BME280;2967;51.488;6.618;2022-12-16T09:35:20;101208.91;;;-1.18;100.00
5883;BME280;2967;51.488;6.618;2022-12-16T09:40:42;101213.38;;;-1.30;100.00
5883;BME280;2967;51.488;6.618;2022-12-16T09:46:09;101192.59;;;-1.30;100.00
5883;BME280;2967;51.488;6.618;2022-12-16T09:51:33;101226.84;;;-0.98;100.00
5883;BME280;2967;51.488;6.618;2022-12-16T09:56:56;101230.38;;;-1.02;100.00
5883;BME280;2967;51.488;6.618;2022-12-16T10:02:18;101220.28;;;-1.31;100.00
5883;BME280;2967;51.488;6.618;2022-12-16T10:07:49;101236.22;;;-0.85;100.00
5883;BME280;2967;51.488;6.618;2022-12-16T10:13:26;101249.19;;;-0.82;100.00
5883;BME280;2967;51.488;6.618;2022-12-16T10:18:54;101243.88;;;-0.75;100.00
5883;BME280;2967;51.488;6.618;2022-12-16T10:24:24;101242.16;;;-0.74;100.00
5883;BME280;2967;51.488;6.618;2022-12-16T10:29:50;101245.66;;;-0.78;100.00
5883;BME280;2967;51.488;6.618;2022-12-16T10:35:18;101254.03;;;-0.55;100.00
5883;BME280;2967;51.488;6.618;2022-12-16T10:40:39;101248.75;;;-0.51;100.00
5883;BME280;2967;51.488;6.618;2022-12-16T10:46:05;101246.91;;;-0.40;100.00
5883;BME280;2967;51.488;6.618;2022-12-16T10:51:27;101258.94;;;-0.33;100.00
5883;BME280;2967;51.488;6.618;2022-12-16T10:56:52;101254.56;;;-0.29;100.00
5883;BME280;2967;51.488;6.618;2022-12-16T11:02:18;101252.78;;;-0.24;100.00
5883;BME280;2967;51.488;6.618;2022-12-16T11:07:51;101251.63;;;-0.07;100.00
5883;BME280;2967;51.488;6.618;2022-12-16T11:13:20;101233.81;;;-0.32;100.00
5883;BME280;2967;51.488;6.618;2022-12-16T11:18:48;101261.22;;;-0.09;100.00
5883;BME280;2967;51.488;6.618;2022-12-16T11:24:13;101259.56;;;-0.17;100.00
5883;BME280;2967;51.488;6.618;2022-12-16T11:29:47;101260.22;;;-0.02;100.00
5883;BME280;2967;51.488;6.618;2022-12-16T11:35:12;101261.09;;;-0.02;100.00
5883;BME280;2967;51.488;6.618;2022-12-16T11:40:34;101279.19;;;0.04;100.00
5883;BME280;2967;51.488;6.618;2022-12-16T11:45:57;101237.84;;;-0.12;100.00
5883;BME280;2967;51.488;6.618;2022-12-16T11:51:21;101266.09;;;0.12;100.00
5883;BME280;2967;51.488;6.618;2022-12-16T11:56:43;101272.94;;;0.16;100.00
5883;BME280;2967;51.488;6.618;2022-12-16T12:02:10;101271.09;;;0.25;100.00
5883;BME280;2967;51.488;6.618;2022-12-16T12:07:43;101283.16;;;0.29;100.00
5883;BME280;2967;51.488;6.618;2022-12-16T12:13:14;101280.41;;;0.38;100.00
5883;BME280;2967;51.488;6.618;2022-12-16T12:18:50;101288.16;;;0.41;100.00
5883;BME280;2967;51.488;6.618;2022-12-16T12:24:24;101287.25;;;0.45;100.00
5883;BME280;2967;51.488;6.618;2022-12-16T12:29:55;101291.56;;;0.46;100.00
5883;BME280;2967;51.488;6.618;2022-12-16T12:35:31;101291.50;;;0.49;100.00
5883;BME280;2967;51.488;6.618;2022-12-16T12:41:02;101295.69;;;0.58;100.00
5883;BME280;2967;51.488;6.618;2022-12-16T12:46:30;101302.59;;;0.62;100.00
5883;BME280;2967;51.488;6.618;2022-12-16T12:51:58;101293.91;;;0.60;100.00
5883;BME280;2967;51.488;6.618;2022-12-16T12:57:25;101286.09;;;0.61;100.00
5883;BME280;2967;51.488;6.618;2022-12-16T13:02:50;101303.19;;;0.76;100.00
5883;BME280;2967;51.488;6.618;2022-12-16T13:14:53;101312.50;;;0.89;100.00
5883;BME280;2967;51.488;6.618;2022-12-16T13:20:35;101306.53;;;0.85;100.00
5883;BME280;2967;51.488;6.618;2022-12-16T13:26:03;101313.44;;;0.86;100.00
5883;BME280;2967;51.488;6.618;2022-12-16T13:31:27;101326.50;;;0.83;100.00
5883;BME280;2967;51.488;6.618;2022-12-16T13:36:57;101329.84;;;0.90;100.00
5883;BME280;2967;51.488;6.618;2022-12-16T13:42:51;101348.94;;;0.92;100.00
5883;BME280;2967;51.488;6.618;2022-12-16T13:48:34;101349.91;;;0.86;100.00
5883;BME280;2967;51.488;6.618;2022-12-16T13:53:57;101358.50;;;0.90;100.00
5883;BME280;2967;51.488;6.618;2022-12-16T13:59:20;101362.13;;;0.81;100.00
5883;BME280;2967;51.488;6.618;2022-12-16T14:11:46;101367.25;;;0.87;100.00
5883;BME280;2967;51.488;6.618;2022-12-16T14:17:12;101380.34;;;0.80;100.00
5883;BME280;2967;51.488;6.618;2022-12-16T14:22:47;101379.25;;;0.94;100.00
5883;BME280;2967;51.488;6.618;2022-12-16T14:28:20;101387.88;;;0.99;100.00
5883;BME280;2967;51.488;6.618;2022-12-16T14:33:42;101344.84;;;0.77;100.00
5883;BME280;2967;51.488;6.618;2022-12-16T14:39:02;101307.19;;;0.45;100.00
5883;BME280;2967;51.488;6.618;2022-12-16T14:44:25;101411.28;;;1.01;100.00
5883;BME280;2967;51.488;6.618;2022-12-16T14:49:48;101425.16;;;1.00;100.00
5883;BME280;2967;51.488;6.618;2022-12-16T14:55:10;101432.97;;;1.01;100.00
5883;BME280;2967;51.488;6.618;2022-12-16T15:00:33;101436.41;;;1.03;100.00
5883;BME280;2967;51.488;6.618;2022-12-16T15:05:55;101446.81;;;1.03;100.00
5883;BME280;2967;51.488;6.618;2022-12-16T15:11:18;101446.06;;;0.97;100.00
5883;BME280;2967;51.488;6.618;2022-12-16T15:16:41;101459.91;;;0.99;100.00
5883;BME280;2967;51.488;6.618;2022-12-16T15:22:02;101448.72;;;0.92;100.00
5883;BME280;2967;51.488;6.618;2022-12-16T15:27:25;101485.13;;;0.98;100.00
5883;BME280;2967;51.488;6.618;2022-12-16T15:32:52;101475.47;;;1.05;100.00
5883;BME280;2967;51.488;6.618;2022-12-16T15:38:17;101465.38;;;0.84;100.00
5883;BME280;2967;51.488;6.618;2022-12-16T15:43:44;101496.38;;;0.99;100.00
5883;BME280;2967;51.488;6.618;2022-12-16T15:49:16;101468.72;;;0.92;100.00
5883;BME280;2967;51.488;6.618;2022-12-16T15:54:53;101510.97;;;1.10;100.00
5883;BME280;2967;51.488;6.618;2022-12-16T16:00:20;101510.25;;;1.01;100.00
5883;BME280;2967;51.488;6.618;2022-12-16T16:05:42;101424.91;;;0.62;100.00
5883;BME280;2967;51.488;6.618;2022-12-16T16:11:02;101530.03;;;1.12;100.00
5883;BME280;2967;51.488;6.618;2022-12-16T16:16:23;101534.28;;;1.19;100.00
5883;BME280;2967;51.488;6.618;2022-12-16T16:21:45;101540.22;;;1.29;100.00
5883;BME280;2967;51.488;6.618;2022-12-16T16:27:10;101536.03;;;1.19;100.00
5883;BME280;2967;51.488;6.618;2022-12-16T16:32:31;101537.03;;;1.10;100.00
5883;BME280;2967;51.488;6.618;2022-12-16T16:37:52;101561.25;;;1.17;100.00
5883;BME280;2967;51.488;6.618;2022-12-16T16:43:19;101537.06;;;1.07;100.00
5883;BME280;2967;51.488;6.618;2022-12-16T16:48:39;101564.66;;;1.20;100.00
5883;BME280;2967;51.488;6.618;2022-12-16T16:54:15;101578.41;;;1.30;100.00
5883;BME280;2967;51.488;6.618;2022-12-16T16:59:37;101573.31;;;1.24;100.00
5883;BME280;2967;51.488;6.618;2022-12-16T17:04:57;101587.97;;;1.31;100.00
5883;BME280;2967;51.488;6.618;2022-12-16T17:10:18;101589.78;;;1.26;100.00
5883;BME280;2967;51.488;6.618;2022-12-16T17:15:39;101611.50;;;1.26;100.00
5883;BME280;2967;51.488;6.618;2022-12-16T17:20:59;101622.69;;;1.33;100.00
5883;BME280;2967;51.488;6.618;2022-12-16T17:26:21;101620.38;;;1.12;100.00
5883;BME280;2967;51.488;6.618;2022-12-16T17:31:42;101620.16;;;1.27;100.00
5883;BME280;2967;51.488;6.618;2022-12-16T17:36:59;101634.06;;;1.27;100.00
5883;BME280;2967;51.488;6.618;2022-12-16T17:42:20;101636.72;;;1.21;100.00
5883;BME280;2967;51.488;6.618;2022-12-16T17:47:47;101642.84;;;1.20;100.00
5883;BME280;2967;51.488;6.618;2022-12-16T17:53:07;101651.53;;;1.21;100.00
5883;BME280;2967;51.488;6.618;2022-12-16T17:58:30;101541.19;;;0.60;100.00
5883;BME280;2967;51.488;6.618;2022-12-16T18:03:51;101655.88;;;1.19;100.00
5883;BME280;2967;51.488;6.618;2022-12-16T18:09:11;101659.25;;;1.27;100.00
5883;BME280;2967;51.488;6.618;2022-12-16T18:14:32;101667.88;;;1.32;100.00
5883;BME280;2967;51.488;6.618;2022-12-16T18:19:53;101665.34;;;1.26;100.00
5883;BME280;2967;51.488;6.618;2022-12-16T18:25:14;101669.69;;;1.25;100.00
5883;BME280;2967;51.488;6.618;2022-12-16T18:30:36;101680.91;;;1.30;100.00
5883;BME280;2967;51.488;6.618;2022-12-16T18:35:56;101685.19;;;1.34;100.00
5883;BME280;2967;51.488;6.618;2022-12-16T18:41:19;101690.50;;;1.27;100.00
5883;BME280;2967;51.488;6.618;2022-12-16T18:46:40;101685.34;;;1.22;100.00
5883;BME280;2967;51.488;6.618;2022-12-16T18:52:00;101700.03;;;1.29;100.00
5883;BME280;2967;51.488;6.618;2022-12-16T18:57:21;101691.34;;;1.30;100.00
5883;BME280;2967;51.488;6.618;2022-12-16T19:02:42;101706.91;;;1.35;100.00
5883;BME280;2967;51.488;6.618;2022-12-16T19:08:03;101708.75;;;1.28;100.00
5883;BME280;2967;51.488;6.618;2022-12-16T19:13:23;101708.91;;;1.16;100.00
5883;BME280;2967;51.488;6.618;2022-12-16T19:18:44;101713.38;;;1.04;100.00
5883;BME280;2967;51.488;6.618;2022-12-16T19:24:05;101730.53;;;1.21;100.00
5883;BME280;2967;51.488;6.618;2022-12-16T19:29:25;101734.00;;;1.22;100.00
5883;BME280;2967;51.488;6.618;2022-12-16T19:34:47;101740.06;;;1.24;100.00
5883;BME280;2967;51.488;6.618;2022-12-16T19:40:10;101733.75;;;1.41;100.00
5883;BME280;2967;51.488;6.618;2022-12-16T19:45:30;101735.59;;;1.35;100.00
5883;BME280;2967;51.488;6.618;2022-12-16T19:50:56;101754.75;;;1.29;100.00
5883;BME280;2967;51.488;6.618;2022-12-16T19:56:17;101749.53;;;1.31;100.00
5883;BME280;2967;51.488;6.618;2022-12-16T20:01:37;101762.53;;;1.32;100.00
5883;BME280;2967;51.488;6.618;2022-12-16T20:06:59;101771.25;;;1.31;100.00
5883;BME280;2967;51.488;6.618;2022-12-16T20:12:23;101773.84;;;1.33;100.00
5883;BME280;2967;51.488;6.618;2022-12-16T20:17:44;101771.28;;;1.27;100.00
5883;BME280;2967;51.488;6.618;2022-12-16T20:23:06;101765.28;;;1.20;100.00
5883;BME280;2967;51.488;6.618;2022-12-16T20:28:26;101782.66;;;1.20;100.00
5883;BME280;2967;51.488;6.618;2022-12-16T20:33:51;101787.81;;;1.24;100.00
5883;BME280;2967;51.488;6.618;2022-12-16T20:39:13;101788.63;;;1.29;100.00
5883;BME280;2967;51.488;6.618;2022-12-16T20:44:33;101810.47;;;1.21;100.00
5883;BME280;2967;51.488;6.618;2022-12-16T20:49:56;101808.66;;;1.27;100.00
5883;BME280;2967;51.488;6.618;2022-12-16T20:55:18;101825.88;;;1.39;100.00
5883;BME280;2967;51.488;6.618;2022-12-16T21:00:39;101833.78;;;1.33;100.00
5883;BME280;2967;51.488;6.618;2022-12-16T21:05:59;101840.88;;;1.17;100.00
5883;BME280;2967;51.488;6.618;2022-12-16T21:11:20;101842.69;;;1.11;100.00
5883;BME280;2967;51.488;6.618;2022-12-16T21:16:40;101849.59;;;1.13;100.00
5883;BME280;2967;51.488;6.618;2022-12-16T21:22:01;101861.69;;;1.22;100.00
5883;BME280;2967;51.488;6.618;2022-12-16T21:27:22;101865.13;;;1.24;100.00
5883;BME280;2967;51.488;6.618;2022-12-16T21:32:43;101867.78;;;1.21;100.00
5883;BME280;2967;51.488;6.618;2022-12-16T21:38:07;101876.53;;;1.14;100.00
5883;BME280;2967;51.488;6.618;2022-12-16T21:43:37;101886.94;;;1.15;100.00
5883;BME280;2967;51.488;6.618;2022-12-16T21:48:57;101890.19;;;1.37;100.00
5883;BME280;2967;51.488;6.618;2022-12-16T21:54:18;101880.06;;;1.07;100.00
5883;BME280;2967;51.488;6.618;2022-12-16T21:59:39;101898.25;;;1.13;100.00
5883;BME280;2967;51.488;6.618;2022-12-16T22:04:59;101888.69;;;1.15;100.00
5883;BME280;2967;51.488;6.618;2022-12-16T22:10:21;101906.91;;;1.16;100.00
5883;BME280;2967;51.488;6.618;2022-12-16T22:15:53;101904.31;;;1.13;100.00
5883;BME280;2967;51.488;6.618;2022-12-16T22:21:13;101913.84;;;1.14;100.00
5883;BME280;2967;51.488;6.618;2022-12-16T22:26:34;101890.66;;;0.86;100.00
5883;BME280;2967;51.488;6.618;2022-12-16T22:31:58;101929.47;;;1.16;100.00
5883;BME280;2967;51.488;6.618;2022-12-16T22:37:18;101931.25;;;1.12;100.00
5883;BME280;2967;51.488;6.618;2022-12-16T22:42:38;101937.25;;;1.19;100.00
5883;BME280;2967;51.488;6.618;2022-12-16T22:48:00;101939.94;;;1.10;100.00
5883;BME280;2967;51.488;6.618;2022-12-16T22:53:20;101939.09;;;1.08;100.00
5883;BME280;2967;51.488;6.618;2022-12-16T22:58:41;101945.13;;;1.17;100.00
5883;BME280;2967;51.488;6.618;2022-12-16T23:04:03;101948.59;;;1.13;100.00
5883;BME280;2967;51.488;6.618;2022-12-16T23:09:23;101955.53;;;1.16;100.00
5883;BME280;2967;51.488;6.618;2022-12-16T23:14:44;101959.91;;;1.12;100.00
5883;BME280;2967;51.488;6.618;2022-12-16T23:20:06;101960.78;;;1.11;100.00
5883;BME280;2967;51.488;6.618;2022-12-16T23:25:28;101955.59;;;1.08;100.00
5883;BME280;2967;51.488;6.618;2022-12-16T23:30:52;101961.69;;;1.07;100.00
5883;BME280;2967;51.488;6.618;2022-12-16T23:36:22;101962.50;;;1.12;100.00
5883;BME280;2967;51.488;6.618;2022-12-16T23:41:54;101968.56;;;1.16;100.00
5883;BME280;2967;51.488;6.618;2022-12-16T23:47:29;101971.16;;;1.17;100.00
5883;BME280;2967;51.488;6.618;2022-12-16T23:53:00;101976.38;;;1.17;100.00
5883;BME280;2967;51.488;6.618;2022-12-16T23:58:21;101966.88;;;1.10;100.00
